Time;durP1;ratioP1;P1;durP2;ratioP2;P2;SDS_P1;SDS_P2;PMS_P1;PMS_P2;Temp;Humidity;BMP_temperature;BMP_pressure;BME280_temperature;BME280_humidity;BME280_pressure;Samples;Min_cycle;Max_cycle;Signal;HPM_P1;HPM_P2
2022/09/24 00:01:11;;;;;;;25.10;14.32;;;17.40;89.20;;;;;;5052288;28;20090;-75
2022/09/24 00:03:38;;;;;;;24.48;14.57;;;17.40;89.60;;;;;;5052529;28;20029;-75
2022/09/24 00:06:05;;;;;;;24.60;15.18;;;17.40;89.40;;;;;;5052688;28;20029;-75
2022/09/24 00:08:31;;;;;;;29.88;16.35;;;17.40;89.60;;;;;;5052468;28;20400;-75
2022/09/24 00:11:03;;;;;;;26.33;15.80;;;17.40;89.80;;;;;;5052643;28;20493;-75
2022/09/24 00:13:30;;;;;;;26.25;14.80;;;17.40;89.80;;;;;;5052779;28;20025;-75
2022/09/24 00:16:00;;;;;;;24.35;15.35;;;17.40;89.60;;;;;;5054668;28;20033;-75
2022/09/24 00:18:25;;;;;;;27.58;13.88;;;17.40;89.60;;;;;;5050209;28;20090;-75
2022/09/24 00:20:51;;;;;;;26.00;14.98;;;17.40;89.40;;;;;;5056064;28;20064;-75
2022/09/24 00:23:17;;;;;;;23.05;14.60;;;17.40;89.50;;;;;;5055622;28;20053;-75
2022/09/24 00:28:29;;;;;;;21.73;14.57;;;17.30;89.30;;;;;;5056179;28;20032;-75
2022/09/24 00:30:57;;;;;;;26.10;16.58;;;17.30;89.20;;;;;;5055291;28;20037;-74
2022/09/24 00:33:27;;;;;;;28.98;16.13;;;17.30;89.40;;;;;;5056170;28;20064;-75
2022/09/24 00:35:58;;;;;;;26.33;15.30;;;17.30;89.40;;;;;;5055411;28;20081;-75
2022/09/24 00:38:24;;;;;;;24.20;15.65;;;17.30;89.80;;;;;;5056301;28;20067;-75
2022/09/24 00:40:50;;;;;;;26.77;16.13;;;17.30;89.80;;;;;;5055905;28;20439;-75
2022/09/24 00:43:33;;;;;;;26.23;15.77;;;17.30;90.00;;;;;;5055257;28;20025;-75
2022/09/24 00:46:30;;;;;;;23.88;15.15;;;17.30;90.10;;;;;;5056139;28;20079;-75
2022/09/24 00:49:16;;;;;;;27.95;15.82;;;17.30;90.00;;;;;;5055795;28;20086;-74
2022/09/24 00:51:44;;;;;;;30.67;16.63;;;17.30;89.90;;;;;;5054651;28;20057;-75
2022/09/24 00:54:17;;;;;;;27.02;15.73;;;17.30;90.00;;;;;;5055543;28;20511;-75
2022/09/24 00:56:44;;;;;;;23.58;13.13;;;17.30;90.00;;;;;;5055720;28;20487;-75
2022/09/24 00:59:15;;;;;;;29.77;16.65;;;17.30;89.40;;;;;;5055157;28;20494;-74
2022/09/24 01:01:43;;;;;;;27.55;16.02;;;17.30;89.60;;;;;;5055654;28;20071;-74
2022/09/24 01:04:10;;;;;;;33.13;17.20;;;17.30;89.70;;;;;;5055082;28;20028;-75
2022/09/24 01:06:36;;;;;;;27.25;17.35;;;17.30;89.80;;;;;;5055603;28;20044;-74
2022/09/24 01:09:02;;;;;;;28.83;16.88;;;17.30;89.90;;;;;;5055302;28;20029;-75
2022/09/24 01:11:42;;;;;;;30.45;16.45;;;17.30;89.90;;;;;;5054815;28;20031;-75
2022/09/24 01:14:26;;;;;;;27.98;17.38;;;17.30;90.00;;;;;;5055266;28;20040;-75
2022/09/24 01:17:13;;;;;;;29.45;18.05;;;17.30;90.00;;;;;;5055262;28;20036;-75
2022/09/24 01:19:48;;;;;;;30.02;17.48;;;17.30;90.10;;;;;;5054846;28;20021;-75
2022/09/24 01:22:20;;;;;;;32.25;17.30;;;17.20;90.10;;;;;;5055437;28;20029;-75
2022/09/24 01:25:06;;;;;;;28.83;16.07;;;17.20;90.10;;;;;;5055236;28;20028;-74
2022/09/24 01:28:03;;;;;;;35.35;19.33;;;17.30;90.00;;;;;;5053957;28;20025;-75
2022/09/24 01:30:33;;;;;;;36.63;19.50;;;17.30;90.10;;;;;;5055156;28;20111;-74
2022/09/24 01:33:07;;;;;;;32.08;20.33;;;17.20;90.10;;;;;;5054368;28;20384;-75
2022/09/24 01:35:54;;;;;;;33.28;17.38;;;17.20;90.20;;;;;;5054985;28;20061;-75
2022/09/24 01:38:30;;;;;;;29.90;19.00;;;17.20;90.10;;;;;;5055201;28;20116;-75
2022/09/24 01:40:59;;;;;;;33.17;19.42;;;17.20;90.20;;;;;;5054359;28;20369;-75
2022/09/24 01:43:26;;;;;;;35.90;22.80;;;17.20;90.20;;;;;;5055128;28;20032;-75
2022/09/24 01:45:58;;;;;;;28.15;17.83;;;17.20;90.40;;;;;;5054587;28;20534;-75
2022/09/24 01:48:25;;;;;;;33.53;19.63;;;17.20;90.30;;;;;;5054316;28;20365;-75
2022/09/24 01:51:01;;;;;;;24.05;14.77;;;17.20;90.20;;;;;;5054655;28;20033;-75
2022/09/24 01:53:34;;;;;;;14.70;7.75;;;17.20;90.00;;;;;;5053840;28;20052;-74
2022/09/24 01:56:03;;;;;;;;;;;17.30;89.60;;;;;;5055177;28;20400;-75
2022/09/24 01:58:45;;;;;;;30.58;17.65;;;17.20;89.70;;;;;;5054609;28;19998;-74
2022/09/24 02:01:17;;;;;;;27.52;16.55;;;17.20;90.20;;;;;;5052546;28;20044;-75
2022/09/24 02:03:55;;;;;;;28.50;16.92;;;17.10;90.20;;;;;;5054496;28;20029;-75
2022/09/24 02:06:46;;;;;;;33.17;16.25;;;17.10;90.30;;;;;;5054631;28;20035;-75
2022/09/24 02:09:30;;;;;;;36.30;19.08;;;17.10;90.30;;;;;;5053866;28;20029;-75
2022/09/24 02:11:58;;;;;;;33.67;17.25;;;17.10;90.50;;;;;;5054309;28;20037;-75
2022/09/24 02:14:27;;;;;;;29.55;18.50;;;17.00;90.50;;;;;;5053709;28;20049;-75
2022/09/24 02:16:53;;;;;;;33.63;18.50;;;17.00;90.60;;;;;;5054304;28;20040;-74
2022/09/24 02:19:25;;;;;;;35.97;23.70;;;17.00;90.60;;;;;;5054002;28;20029;-74
2022/09/24 02:21:51;;;;;;;33.63;20.25;;;17.10;91.00;;;;;;5053735;28;20035;-75
2022/09/24 02:24:24;;;;;;;33.13;19.73;;;17.00;90.80;;;;;;5054181;28;20032;-75
2022/09/24 02:26:50;;;;;;;32.85;20.98;;;17.10;90.80;;;;;;5053975;28;20036;-74
2022/09/24 02:29:17;;;;;;;31.60;20.20;;;17.00;90.70;;;;;;5053191;28;20404;-75
2022/09/24 02:31:53;;;;;;;32.63;20.95;;;17.00;90.80;;;;;;5054013;28;20036;-75
2022/09/24 02:34:28;;;;;;;31.70;20.98;;;17.00;91.00;;;;;;5054005;28;20051;-75
2022/09/24 02:37:08;;;;;;;38.78;22.33;;;17.10;91.00;;;;;;5053282;28;20087;-75
2022/09/24 02:39:35;;;;;;;35.35;21.88;;;17.10;91.20;;;;;;5053980;28;20029;-75
2022/09/24 02:42:03;;;;;;;32.53;22.15;;;17.10;91.00;;;;;;5053754;28;20384;-75
2022/09/24 02:44:30;;;;;;;36.20;23.90;;;17.20;91.00;;;;;;5052764;28;20128;-75
2022/09/24 02:46:55;;;;;;;33.63;22.70;;;17.20;91.10;;;;;;5053836;28;20040;-75
2022/09/24 02:49:21;;;;;;;36.50;22.40;;;17.20;91.20;;;;;;5053833;28;20045;-75
2022/09/24 02:51:47;;;;;;;35.90;23.25;;;17.20;91.30;;;;;;5052681;28;20047;-74
2022/09/24 02:54:12;;;;;;;34.42;23.17;;;17.20;91.20;;;;;;5053693;28;20099;-75
2022/09/24 02:56:39;;;;;;;36.20;23.98;;;17.20;91.30;;;;;;5052576;28;20067;-75
2022/09/24 02:59:05;;;;;;;36.75;25.52;;;17.20;91.30;;;;;;5053242;28;20486;-74
2022/09/24 03:01:31;;;;;;;37.90;23.52;;;17.30;91.60;;;;;;5053381;28;20512;-75
2022/09/24 03:03:57;;;;;;;36.05;23.85;;;17.30;91.70;;;;;;5052827;28;20037;-75
2022/09/24 03:06:26;;;;;;;32.13;21.85;;;17.40;91.90;;;;;;5053182;28;20087;-75
2022/09/24 03:08:57;;;;;;;38.08;22.05;;;17.30;91.70;;;;;;5053160;28;20454;-75
2022/09/24 03:11:24;;;;;;;33.65;21.13;;;17.40;91.80;;;;;;5052294;28;20388;-74
2022/09/24 03:13:50;;;;;;;31.17;20.38;;;17.40;91.90;;;;;;5053337;28;20107;-75
2022/09/24 03:16:17;;;;;;;29.55;18.05;;;17.40;91.90;;;;;;5053101;28;20090;-75
2022/09/24 03:18:43;;;;;;;28.73;16.80;;;17.40;91.90;;;;;;5052428;28;20032;-75
2022/09/24 03:21:13;;;;;;;27.65;17.05;;;17.40;91.80;;;;;;5053117;28;20036;-75
2022/09/24 03:23:39;;;;;;;26.17;16.80;;;17.40;91.90;;;;;;5053114;28;20033;-75
2022/09/24 03:26:05;;;;;;;24.15;16.27;;;17.40;91.80;;;;;;5052277;28;20029;-75
2022/09/24 03:28:31;;;;;;;24.13;15.05;;;17.40;91.80;;;;;;5053325;28;20078;-75
2022/09/24 03:30:59;;;;;;;23.40;14.25;;;17.40;91.80;;;;;;5053281;28;20037;-75
2022/09/24 03:33:35;;;;;;;28.48;14.90;;;17.40;92.00;;;;;;5052511;28;20032;-75
2022/09/24 03:36:05;;;;;;;18.85;10.38;;;17.40;92.20;;;;;;5052867;28;20127;-75
2022/09/24 03:38:32;;;;;;;21.10;12.93;;;17.50;92.30;;;;;;5052844;28;20040;-75
2022/09/24 03:40:58;;;;;;;10.68;6.78;;;17.50;92.40;;;;;;5052368;28;20029;-75
2022/09/24 03:43:24;;;;;;;14.15;6.82;;;17.50;92.50;;;;;;5053123;28;20029;-74
2022/09/24 03:45:50;;;;;;;11.40;4.43;;;17.50;92.70;;;;;;5052314;28;20051;-75
2022/09/24 03:48:17;;;;;;;11.90;2.50;;;17.50;92.80;;;;;;5052863;28;20103;-74
2022/09/24 03:50:43;;;;;;;9.38;1.70;;;17.60;92.90;;;;;;5055056;28;20029;-74
2022/09/24 03:53:09;;;;;;;9.65;1.50;;;17.60;92.90;;;;;;5056011;28;20039;-75
2022/09/24 03:55:35;;;;;;;10.35;1.80;;;17.60;93.00;;;;;;5057005;28;20068;-75
2022/09/24 03:58:01;;;;;;;6.30;1.63;;;17.60;93.00;;;;;;5057231;28;20048;-75
2022/09/24 04:00:26;;;;;;;10.73;1.80;;;17.60;93.00;;;;;;5056163;28;20079;-75
2022/09/24 04:02:52;;;;;;;10.23;1.35;;;17.60;93.00;;;;;;5056945;28;20112;-74
2022/09/24 04:05:18;;;;;;;17.63;1.98;;;17.60;93.10;;;;;;5056663;28;20037;-75
2022/09/24 04:07:44;;;;;;;12.25;1.95;;;17.60;93.00;;;;;;5055609;28;20033;-74
2022/09/24 04:10:10;;;;;;;6.97;1.65;;;17.60;93.00;;;;;;5056833;28;20060;-75
2022/09/24 04:12:36;;;;;;;9.07;1.80;;;17.60;93.00;;;;;;5056802;28;20037;-76
2022/09/24 04:15:02;;;;;;;15.73;2.38;;;17.60;93.00;;;;;;5055925;28;20045;-75
2022/09/24 04:17:31;;;;;;;12.20;2.35;;;17.60;93.10;;;;;;5056465;28;20036;-75
2022/09/24 04:20:00;;;;;;;11.90;2.53;;;17.60;93.00;;;;;;5056446;28;20040;-75
2022/09/24 04:22:27;;;;;;;12.95;2.00;;;17.60;93.00;;;;;;5055428;28;20115;-74
2022/09/24 04:24:57;;;;;;;16.13;2.00;;;17.60;93.00;;;;;;5056597;28;20406;-75
2022/09/24 04:27:22;;;;;;;9.60;2.38;;;17.60;92.80;;;;;;5056106;28;20086;-75
2022/09/24 04:29:48;;;;;;;12.35;2.22;;;17.60;92.80;;;;;;5055509;28;20124;-75
2022/09/24 04:32:14;;;;;;;8.45;1.90;;;17.60;92.70;;;;;;5056202;28;20025;-75
2022/09/24 04:34:39;;;;;;;17.08;2.05;;;17.60;92.60;;;;;;5056169;28;20037;-75
2022/09/24 04:37:05;;;;;;;9.27;1.83;;;17.60;92.60;;;;;;5055572;28;20427;-75
2022/09/24 04:39:31;;;;;;;9.18;1.55;;;17.50;92.50;;;;;;5056346;28;20044;-75
2022/09/24 04:42:00;;;;;;;9.07;1.92;;;17.50;92.50;;;;;;5055732;28;20033;-75
2022/09/24 04:44:27;;;;;;;11.20;2.00;;;17.50;92.60;;;;;;5056057;28;20127;-75
2022/09/24 04:47:01;;;;;;;10.73;1.58;;;17.50;92.60;;;;;;5055697;28;20436;-75
2022/09/24 04:49:27;;;;;;;8.27;1.55;;;17.50;92.40;;;;;;5055096;28;20036;-75
2022/09/24 04:51:57;;;;;;;7.60;1.48;;;17.50;92.30;;;;;;5055703;28;20045;-75
2022/09/24 04:54:24;;;;;;;10.00;1.80;;;17.40;92.30;;;;;;5056010;28;20426;-75
2022/09/24 04:56:49;;;;;;;13.15;1.65;;;17.50;92.30;;;;;;5055096;28;20040;-75
2022/09/24 04:59:16;;;;;;;5.93;1.33;;;17.40;92.20;;;;;;5055637;28;20033;-75
2022/09/24 05:01:42;;;;;;;11.65;1.52;;;17.40;92.30;;;;;;5055408;28;20025;-75
2022/09/24 05:04:08;;;;;;;8.07;1.88;;;17.40;92.30;;;;;;5055325;28;20466;-75
2022/09/24 05:06:35;;;;;;;9.23;1.38;;;17.40;92.40;;;;;;5055522;28;20436;-75
2022/09/24 05:09:00;;;;;;;6.50;1.58;;;17.40;92.40;;;;;;5055469;28;20029;-75
2022/09/24 05:11:26;;;;;;;7.35;1.60;;;17.40;92.40;;;;;;5054613;28;20040;-75
2022/09/24 05:13:52;;;;;;;9.90;1.55;;;17.40;92.40;;;;;;5055302;28;20048;-74
2022/09/24 05:16:17;;;;;;;9.07;1.50;;;17.40;92.50;;;;;;5055503;28;20028;-75
2022/09/24 05:18:43;;;;;;;10.05;1.63;;;17.40;92.50;;;;;;5054354;28;20029;-75
2022/09/24 05:21:09;;;;;;;8.20;1.73;;;17.40;92.60;;;;;;5055345;28;20484;-75
2022/09/24 05:23:34;;;;;;;12.23;1.77;;;17.40;92.60;;;;;;5055101;28;20433;-75
2022/09/24 05:28:44;;;;;;;5.00;1.13;;;17.40;92.60;;;;;;5055272;28;20444;-74
2022/09/24 05:31:10;;;;;;;11.02;2.13;;;17.40;92.50;;;;;;5055097;28;20049;-75
2022/09/24 05:33:36;;;;;;;11.02;1.63;;;17.50;92.50;;;;;;5054360;28;20415;-75
2022/09/24 05:36:03;;;;;;;7.95;1.63;;;17.40;92.40;;;;;;5055200;28;20043;-75
2022/09/24 05:38:29;;;;;;;16.33;2.35;;;17.40;92.40;;;;;;5054313;28;20120;-74
2022/09/24 05:40:55;;;;;;;9.95;1.83;;;17.40;92.40;;;;;;5054966;28;20047;-75
2022/09/24 05:43:20;;;;;;;7.00;1.42;;;17.40;92.40;;;;;;5055040;28;20453;-75
2022/09/24 05:45:48;;;;;;;10.43;1.65;;;17.40;92.50;;;;;;5054215;28;20043;-74
2022/09/24 05:48:14;;;;;;;13.30;1.60;;;17.40;92.50;;;;;;5054863;28;20037;-75
2022/09/24 05:50:41;;;;;;;5.57;1.15;;;17.40;92.50;;;;;;5054775;28;20052;-75
2022/09/24 05:53:10;;;;;;;9.63;1.48;;;17.40;92.50;;;;;;5053987;28;20092;-74
2022/09/24 05:55:35;;;;;;;4.53;1.02;;;17.40;92.50;;;;;;5054718;28;20037;-75
2022/09/24 05:58:09;;;;;;;6.82;1.20;;;17.40;92.40;;;;;;5054367;28;20372;-75
2022/09/24 06:00:36;;;;;;;6.32;1.25;;;17.40;92.50;;;;;;5053743;28;20506;-75
2022/09/24 06:03:08;;;;;;;8.18;1.58;;;17.40;92.40;;;;;;5054677;28;20036;-75
2022/09/24 06:05:34;;;;;;;10.48;1.50;;;17.30;92.50;;;;;;5054526;28;20029;-75
2022/09/24 06:08:01;;;;;;;12.85;1.67;;;17.30;92.40;;;;;;5054013;28;20083;-75
2022/09/24 06:10:27;;;;;;;5.20;1.30;;;17.30;92.40;;;;;;5054215;28;20035;-75
2022/09/24 06:12:53;;;;;;;9.63;1.40;;;17.30;92.40;;;;;;5053751;28;20036;-75
2022/09/24 06:15:25;;;;;;;11.65;1.83;;;17.30;92.50;;;;;;5053543;28;20045;-75
2022/09/24 06:17:53;;;;;;;11.98;1.70;;;17.30;92.50;;;;;;5054517;28;20116;-75
2022/09/24 06:20:19;;;;;;;3.88;1.30;;;17.30;92.50;;;;;;5054152;28;20037;-74
2022/09/24 06:22:44;;;;;;;9.27;1.77;;;17.30;92.40;;;;;;5053248;28;20032;-75
2022/09/24 06:25:10;;;;;;;12.95;1.88;;;17.40;92.40;;;;;;5053905;28;20029;-75
2022/09/24 06:27:36;;;;;;;7.13;1.50;;;17.30;92.40;;;;;;5053278;28;20437;-74
2022/09/24 06:30:03;;;;;;;6.53;0.90;;;17.30;92.30;;;;;;5054097;28;20056;-75
2022/09/24 06:32:29;;;;;;;5.78;1.33;;;17.40;92.30;;;;;;5053841;28;20029;-74
2022/09/24 06:34:55;;;;;;;9.00;1.40;;;17.40;92.30;;;;;;5053345;28;20037;-75
2022/09/24 06:37:21;;;;;;;10.65;1.88;;;17.40;92.40;;;;;;5053741;28;20029;-75
2022/09/24 06:39:48;;;;;;;5.28;1.13;;;17.40;92.40;;;;;;5053577;28;20074;-74
2022/09/24 06:42:13;;;;;;;7.82;1.25;;;17.40;92.30;;;;;;5053152;28;20535;-75
2022/09/24 06:44:39;;;;;;;9.80;1.30;;;17.40;92.30;;;;;;5053893;28;20029;-74
2022/09/24 06:47:05;;;;;;;4.72;1.30;;;17.40;92.60;;;;;;5053816;28;20029;-75
2022/09/24 06:49:30;;;;;;;4.90;1.13;;;17.40;92.30;;;;;;5052770;28;20110;-74
2022/09/24 06:51:57;;;;;;;7.90;1.50;;;17.40;92.30;;;;;;5053278;28;20053;-75
2022/09/24 06:54:24;;;;;;;12.35;1.60;;;17.40;92.40;;;;;;5053225;28;20028;-74
2022/09/24 06:56:51;;;;;;;12.23;1.60;;;17.40;92.40;;;;;;5052909;28;20029;-75
2022/09/24 06:59:17;;;;;;;7.70;1.27;;;17.40;92.40;;;;;;5053299;28;20467;-74
2022/09/24 07:01:43;;;;;;;17.10;2.58;;;17.40;92.50;;;;;;5053337;28;20069;-74
2022/09/24 07:04:10;;;;;;;12.30;1.52;;;17.40;92.60;;;;;;5052950;28;20055;-74
2022/09/24 07:09:20;;;;;;;8.02;1.67;;;17.30;92.70;;;;;;5053588;28;20029;-75
2022/09/24 07:11:46;;;;;;;10.50;1.55;;;17.30;92.70;;;;;;5052412;28;20037;-74
2022/09/24 07:14:12;;;;;;;8.68;1.55;;;17.30;92.90;;;;;;5053126;28;20055;-74
2022/09/24 07:16:38;;;;;;;7.10;1.55;;;17.30;92.90;;;;;;5053130;28;20546;-74
2022/09/24 07:19:04;;;;;;;12.13;1.70;;;17.30;93.00;;;;;;5052408;28;20064;-74
2022/09/24 07:21:30;;;;;;;7.30;1.33;;;17.20;93.00;;;;;;5052916;28;20115;-75
2022/09/24 07:23:55;;;;;;;9.77;1.70;;;17.20;93.10;;;;;;5052034;28;20075;-74
2022/09/24 07:26:21;;;;;;;7.78;1.25;;;17.20;93.20;;;;;;5052456;28;20466;-74
2022/09/24 07:28:47;;;;;;;12.00;1.40;;;17.20;93.20;;;;;;5053102;28;20035;-75
2022/09/24 07:31:13;;;;;;;9.90;2.15;;;17.20;93.40;;;;;;5052244;28;20106;-74
2022/09/24 07:33:39;;;;;;;15.23;1.80;;;17.10;93.60;;;;;;5052857;28;20051;-75
2022/09/24 07:36:06;;;;;;;10.70;1.67;;;17.10;93.50;;;;;;5052887;28;20033;-75
2022/09/24 07:38:33;;;;;;;9.70;1.48;;;17.10;93.60;;;;;;5052304;28;20041;-74
2022/09/24 07:40:58;;;;;;;10.55;1.70;;;17.10;93.60;;;;;;5052881;28;20388;-75
2022/09/24 07:43:44;;;;;;;11.20;1.90;;;17.10;93.60;;;;;;5053005;28;20037;-75
2022/09/24 07:46:10;;;;;;;8.45;1.70;;;17.10;93.70;;;;;;5051059;28;20506;-75
2022/09/24 07:48:35;;;;;;;7.60;1.15;;;17.10;93.70;;;;;;5053045;28;20029;-74
2022/09/24 07:51:01;;;;;;;13.82;1.83;;;17.10;93.70;;;;;;5052596;28;20041;-75
2022/09/24 07:53:30;;;;;;;11.25;1.48;;;17.20;93.60;;;;;;5052075;28;20044;-75
2022/09/24 07:55:58;;;;;;;11.48;2.35;;;17.20;93.60;;;;;;5053357;28;20041;-75
2022/09/24 07:58:24;;;;;;;5.45;1.23;;;17.20;93.70;;;;;;5052748;28;20044;-75
2022/09/24 08:00:49;;;;;;;10.75;2.10;;;17.20;93.90;;;;;;5052310;28;20021;-75
2022/09/24 08:03:15;;;;;;;6.88;1.20;;;17.20;93.60;;;;;;5052654;28;20499;-74
2022/09/24 08:05:43;;;;;;;8.43;1.73;;;17.20;93.50;;;;;;5052800;28;20029;-75
2022/09/24 08:08:12;;;;;;;11.85;2.00;;;17.30;93.50;;;;;;5052264;28;20052;-75
2022/09/24 08:10:38;;;;;;;8.63;1.80;;;17.30;93.50;;;;;;5052567;28;20491;-75
2022/09/24 08:13:04;;;;;;;11.60;2.42;;;17.30;93.40;;;;;;5052009;28;20037;-76
2022/09/24 08:15:30;;;;;;;11.73;1.55;;;17.30;93.40;;;;;;5052654;28;20048;-75
2022/09/24 08:18:03;;;;;;;8.52;2.05;;;17.30;93.40;;;;;;5052509;28;20033;-74
2022/09/24 08:20:31;;;;;;;7.97;2.00;;;17.40;93.40;;;;;;5052112;28;20036;-75
2022/09/24 08:23:04;;;;;;;11.50;1.67;;;17.40;93.40;;;;;;5052723;28;20067;-75
2022/09/24 08:25:30;;;;;;;8.15;1.60;;;17.40;93.40;;;;;;5052610;28;20105;-74
2022/09/24 08:28:04;;;;;;;8.45;1.17;;;17.40;93.50;;;;;;5051444;28;20086;-75
2022/09/24 08:30:30;;;;;;;5.90;1.38;;;17.40;93.50;;;;;;5052699;28;20492;-75
2022/09/24 08:32:57;;;;;;;5.60;1.23;;;17.30;93.50;;;;;;5052317;28;20435;-75
2022/09/24 08:35:23;;;;;;;5.63;1.42;;;17.30;93.60;;;;;;5052055;28;20060;-74
2022/09/24 08:37:48;;;;;;;8.75;1.60;;;17.30;93.70;;;;;;5056377;28;20075;-75
2022/09/24 08:40:22;;;;;;;11.68;1.80;;;17.30;93.70;;;;;;5055947;28;20033;-74
2022/09/24 08:43:06;;;;;;;6.22;1.20;;;17.20;93.80;;;;;;5055207;28;20029;-75
2022/09/24 08:48:23;;;;;;;9.15;1.42;;;17.30;93.80;;;;;;5055504;28;19909;-74
2022/09/24 08:51:01;;;;;;;5.38;1.20;;;17.20;93.80;;;;;;5055776;28;20102;-74
2022/09/24 08:53:35;;;;;;;9.02;1.52;;;17.20;93.90;;;;;;5055296;28;20484;-74
2022/09/24 08:56:03;;;;;;;6.88;1.27;;;17.20;94.00;;;;;;5055273;28;20037;-75
2022/09/24 08:58:50;;;;;;;6.30;1.10;;;17.20;94.00;;;;;;5056063;28;20032;-75
2022/09/24 09:01:22;;;;;;;1.10;0.75;;;17.20;94.10;;;;;;5055722;28;20389;-74
2022/09/24 09:04:03;;;;;;;8.25;1.63;;;17.20;94.20;;;;;;5055099;28;20029;-74
2022/09/24 09:06:48;;;;;;;10.77;1.60;;;17.20;94.10;;;;;;5055468;28;20040;-75
2022/09/24 09:09:28;;;;;;;6.47;1.15;;;17.30;94.10;;;;;;5055189;28;20480;-75
2022/09/24 09:12:04;;;;;;;4.40;1.25;;;17.20;94.10;;;;;;5055763;28;20416;-74
2022/09/24 09:14:45;;;;;;;3.10;1.00;;;17.30;94.10;;;;;;5055758;28;20044;-74
2022/09/24 09:17:30;;;;;;;8.75;1.65;;;17.20;94.10;;;;;;5053537;28;20056;-74
2022/09/24 09:20:00;;;;;;;7.97;1.55;;;17.20;94.10;;;;;;5055564;28;20116;-74
2022/09/24 09:22:36;;;;;;;6.22;1.25;;;17.30;94.10;;;;;;5055204;28;20051;-75
2022/09/24 09:25:35;;;;;;;9.73;1.35;;;17.30;94.10;;;;;;5054412;28;20071;-74
2022/09/24 09:28:14;;;;;;;7.35;1.50;;;17.30;94.10;;;;;;5073588;28;20061;-74
2022/09/24 09:31:07;;;;;;;13.52;1.50;;;17.30;94.10;;;;;;5074387;28;20758;-74
2022/09/24 09:33:47;;;;;;;8.30;1.25;;;17.30;94.10;;;;;;5075371;28;20032;-75
2022/09/24 09:36:25;;;;;;;8.02;1.80;;;17.30;94.00;;;;;;5075775;28;20123;-75
2022/09/24 09:39:25;;;;;;;5.72;1.25;;;17.30;94.00;;;;;;5074173;28;20191;-75
2022/09/24 09:42:21;;;;;;;4.90;1.35;;;17.40;94.10;;;;;;5074905;28;20033;-74
2022/09/24 09:44:48;;;;;;;7.28;1.35;;;17.40;94.10;;;;;;5074114;28;20064;-75
2022/09/24 09:47:40;;;;;;;5.07;1.40;;;17.30;94.10;;;;;;5073600;28;20033;-74
2022/09/24 09:50:20;;;;;;;2.78;0.85;;;17.30;94.20;;;;;;5075059;28;20029;-74
2022/09/24 09:52:46;;;;;;;6.45;1.20;;;17.30;94.20;;;;;;5073832;28;20098;-74
2022/09/24 09:55:31;;;;;;;2.95;1.38;;;17.30;94.30;;;;;;5074783;28;20036;-75
2022/09/24 09:58:16;;;;;;;9.80;2.15;;;17.30;94.30;;;;;;5074587;28;20040;-74
2022/09/24 10:00:47;;;;;;;13.40;2.35;;;17.30;94.30;;;;;;5073796;28;20498;-74
2022/09/24 10:03:25;;;;;;;8.18;1.20;;;17.30;94.20;;;;;;5074830;28;20032;-75
2022/09/24 10:05:59;;;;;;;2.42;0.95;;;17.30;94.20;;;;;;5073549;28;20027;-75
2022/09/24 10:08:26;;;;;;;1.38;0.80;;;17.30;94.10;;;;;;5074567;28;20036;-75
2022/09/24 10:10:58;;;;;;;5.97;1.55;;;17.40;94.10;;;;;;5074614;28;20056;-74
2022/09/24 10:13:25;;;;;;;3.78;1.45;;;17.40;94.00;;;;;;5074097;28;20108;-74
2022/09/24 10:16:02;;;;;;;6.22;2.08;;;17.40;93.90;;;;;;5074450;28;20047;-74
2022/09/24 10:18:32;;;;;;;10.77;1.83;;;17.40;93.90;;;;;;5073974;28;20032;-74
2022/09/24 10:21:02;;;;;;;5.78;1.13;;;17.40;93.80;;;;;;5073620;28;20039;-75
2022/09/24 10:23:42;;;;;;;5.65;1.58;;;17.40;93.80;;;;;;5074009;28;20491;-74
2022/09/24 10:26:11;;;;;;;7.40;1.80;;;17.40;93.80;;;;;;5069479;28;20029;-74
2022/09/24 10:31:31;;;;;;;8.52;1.00;;;17.30;93.70;;;;;;5053870;28;20063;-75
2022/09/24 10:33:59;;;;;;;3.10;1.10;;;17.40;93.80;;;;;;5053064;28;20826;-74
2022/09/24 10:36:27;;;;;;;7.97;1.67;;;17.40;93.80;;;;;;5053902;28;20037;-74
2022/09/24 10:39:14;;;;;;;7.13;1.55;;;17.40;93.70;;;;;;5053692;28;20478;-74
2022/09/24 10:41:50;;;;;;;3.95;1.02;;;17.40;93.80;;;;;;5053281;28;20451;-74
2022/09/24 10:44:19;;;;;;;5.82;1.30;;;17.40;93.80;;;;;;5053594;28;20037;-74
2022/09/24 10:47:11;;;;;;;7.55;1.10;;;17.40;93.80;;;;;;5053585;28;20060;-75
2022/09/24 10:50:07;;;;;;;6.65;1.27;;;17.40;93.90;;;;;;5053232;28;20029;-75
2022/09/24 10:52:52;;;;;;;8.98;1.00;;;17.40;93.90;;;;;;5054033;28;20053;-74
2022/09/24 10:55:44;;;;;;;6.78;0.98;;;17.40;93.90;;;;;;5052595;28;20041;-75
2022/09/24 10:58:32;;;;;;;4.72;1.10;;;17.40;93.90;;;;;;5053206;28;20043;-75
2022/09/24 11:01:03;;;;;;;4.25;1.23;;;17.40;93.80;;;;;;5053395;28;20492;-74
2022/09/24 11:04:02;;;;;;;4.05;1.20;;;17.50;93.90;;;;;;5052557;28;20035;-75
2022/09/24 11:06:59;;;;;;;11.23;1.90;;;17.40;93.90;;;;;;5053208;28;20036;-74
2022/09/24 11:10:03;;;;;;;10.43;1.45;;;17.40;93.80;;;;;;5052426;28;20465;-74
2022/09/24 11:13:06;;;;;;;13.98;1.90;;;17.40;93.80;;;;;;5053188;28;20473;-74
2022/09/24 11:15:52;;;;;;;10.48;1.30;;;17.40;93.90;;;;;;5053302;28;20049;-75
2022/09/24 11:18:45;;;;;;;9.30;1.10;;;17.40;93.90;;;;;;5053067;28;20488;-75
2022/09/24 11:21:14;;;;;;;7.95;1.33;;;17.40;94.00;;;;;;5053316;28;20071;-74
2022/09/24 11:23:45;;;;;;;8.88;1.45;;;17.40;94.00;;;;;;5052683;28;20067;-74
2022/09/24 11:26:48;;;;;;;2.67;1.00;;;17.40;94.10;;;;;;5056388;28;20438;-74
2022/09/24 11:29:25;;;;;;;3.53;0.60;;;17.50;94.20;;;;;;5073130;28;20074;-75
2022/09/24 11:32:05;;;;;;;9.75;1.27;;;17.40;94.20;;;;;;5072446;28;20121;-74
2022/09/24 11:35:02;;;;;;;5.32;1.08;;;17.50;94.20;;;;;;5072855;28;20510;-74
2022/09/24 11:37:46;;;;;;;9.35;1.40;;;17.50;94.20;;;;;;5072311;28;20063;-75
2022/09/24 11:40:17;;;;;;;;;;;17.50;94.20;;;;;;5073644;28;20383;-74
2022/09/24 11:42:55;;;;;;;6.90;1.60;;;17.50;94.30;;;;;;5072700;28;19916;-73
2022/09/24 11:45:46;;;;;;;4.65;1.05;;;17.50;94.30;;;;;;5072556;28;20055;-71
2022/09/24 11:48:27;;;;;;;5.20;1.10;;;17.50;94.40;;;;;;5049817;28;20030;-68
2022/09/24 11:51:07;;;;;;;8.93;1.73;;;17.50;94.40;;;;;;5030751;28;20080;-69
2022/09/24 11:53:38;;;;;;;4.55;1.05;;;17.50;94.30;;;;;;5033439;28;20076;-69
2022/09/24 11:56:23;;;;;;;3.70;1.27;;;17.50;94.40;;;;;;5030700;28;20052;-69
2022/09/24 11:58:59;;;;;;;3.58;1.05;;;17.50;94.40;;;;;;5032474;28;20029;-70
2022/09/24 12:01:32;;;;;;;5.13;2.00;;;17.50;94.40;;;;;;5030653;28;20116;-72
2022/09/24 12:04:26;;;;;;;7.18;1.50;;;17.50;94.40;;;;;;5036300;28;20033;-71
2022/09/24 12:07:05;;;;;;;;;;;17.50;94.20;;;;;;5030361;28;20026;-69
2022/09/24 12:09:34;;;;;;;7.43;1.42;;;17.50;94.30;;;;;;5044004;28;19909;-70
2022/09/24 12:12:08;;;;;;;7.22;1.65;;;17.40;94.30;;;;;;5053494;28;20032;-69
2022/09/24 12:14:55;;;;;;;7.55;1.30;;;17.50;94.40;;;;;;5054324;28;20094;-71
2022/09/24 12:17:38;;;;;;;3.60;1.13;;;17.50;94.40;;;;;;5054278;28;20025;-70
2022/09/24 12:20:27;;;;;;;2.15;0.50;;;17.50;94.30;;;;;;5054393;28;20029;-71
2022/09/24 12:23:06;;;;;;;2.55;0.90;;;17.40;94.60;;;;;;5056274;28;20045;-70
2022/09/24 12:25:38;;;;;;;4.97;1.27;;;17.50;94.20;;;;;;5055360;28;20029;-71
2022/09/24 12:28:08;;;;;;;3.45;0.80;;;17.50;94.30;;;;;;5073271;28;20036;-73
2022/09/24 12:33:38;;;;;;;1.33;0.57;;;17.50;94.30;;;;;;5075530;28;20440;-72
2022/09/24 12:36:36;;;;;;;1.13;0.80;;;17.50;94.30;;;;;;5075811;28;20040;-73
2022/09/24 12:39:10;;;;;;;7.88;1.15;;;17.60;94.40;;;;;;5058032;28;20496;-69
2022/09/24 12:41:55;;;;;;;2.90;1.10;;;17.50;94.30;;;;;;5055086;28;20029;-72
2022/09/24 12:44:33;;;;;;;3.50;1.00;;;17.60;94.20;;;;;;5055824;28;20410;-69
2022/09/24 12:46:59;;;;;;;5.20;0.93;;;17.60;94.20;;;;;;5055859;28;20029;-69
2022/09/24 12:49:25;;;;;;;12.13;1.17;;;17.60;94.20;;;;;;5055456;28;20037;-70
2022/09/24 12:51:53;;;;;;;10.13;1.02;;;17.60;94.20;;;;;;5044785;28;20475;-69
2022/09/24 12:54:37;;;;;;;2.70;0.90;;;17.60;94.30;;;;;;5032848;28;20082;-68
2022/09/24 12:57:24;;;;;;;6.13;1.15;;;17.60;94.20;;;;;;5033442;28;20100;-69
2022/09/24 13:00:02;;;;;;;7.25;0.93;;;17.60;94.30;;;;;;5035041;28;20044;-69
2022/09/24 13:02:32;;;;;;;10.25;2.45;;;17.60;94.20;;;;;;5033830;28;20033;-71
2022/09/24 13:05:00;;;;;;;12.00;1.50;;;17.60;94.30;;;;;;5041718;28;20028;-70
2022/09/24 13:07:39;;;;;;;8.35;1.30;;;17.60;94.20;;;;;;5041940;28;20491;-69
2022/09/24 13:10:28;;;;;;;7.35;0.88;;;17.60;94.30;;;;;;5054733;28;20104;-70
2022/09/24 13:12:56;;;;;;;5.95;1.23;;;17.60;94.30;;;;;;5047169;28;20515;-69
2022/09/24 13:15:39;;;;;;;3.17;0.93;;;17.60;94.20;;;;;;5052206;28;20029;-69
2022/09/24 13:18:08;;;;;;;6.38;1.10;;;17.60;94.20;;;;;;5048706;28;20032;-69
2022/09/24 13:20:36;;;;;;;3.55;1.00;;;17.60;94.10;;;;;;5049994;28;20041;-69
2022/09/24 13:23:34;;;;;;;8.07;1.17;;;17.60;94.10;;;;;;5049596;28;20487;-70